aviador You're here:

OJAQ Decoded Metar

AQABA in JORDAN
Report Time2017-08-24 06:00:00
UTC Time2017-08-24 06:59:44
Flight Rules mvfr MVFR
Wind360° at 14 kt
W.Decomp.*RWY 01: 13.6 kt HW 3.1 kt LCW
Visibility7000 m
Phenomena:N/A
Clouds:N/A
Expected CloudBase > 4,000 ft AGL from Temp-Dew spread
CeilingNone
Temp29°C (ISA +14)
Dew Point19°C (55% RH)
Heat Index30.3°C
AAT27.2°C
QNH1008 hPa
Density Alt2,274 ft
Elevation167 ft
Report Wrong Elevation
Raw Report
OJAQ 240600Z 36014KT 7000 NSC 29/19 Q1008 NOSIG=

Extra information for OJAQ:More info

Metar Taf Metar & Taf Last 4 Metars F.Rules Stats Wind Profile Meteogram Temp Stats Airport Information Weather charts Add Link Nearby VenuesMetar ALERT Operation Metar Decoded Social comments